sensor_id;sensor_type;location;lat;lon;timestamp;pressure;altitude;pressure_sealevel;temperature;humidity
56721;BME280;53183;47.412;18.884;2023-02-17T00:00:58;100137.88;;;3.33;100.00
56721;BME280;53183;47.412;18.884;2023-02-17T00:03:25;100137.03;;;3.31;100.00
56721;BME280;53183;47.412;18.884;2023-02-17T00:05:53;100144.00;;;3.29;100.00
56721;BME280;53183;47.412;18.884;2023-02-17T00:08:20;100138.00;;;3.24;100.00
56721;BME280;53183;47.412;18.884;2023-02-17T00:10:57;100141.50;;;3.23;100.00
56721;BME280;53183;47.412;18.884;2023-02-17T00:13:25;100141.59;;;3.15;100.00
56721;BME280;53183;47.412;18.884;2023-02-17T00:15:52;100132.88;;;3.18;100.00
56721;BME280;53183;47.412;18.884;2023-02-17T00:18:20;100135.31;;;3.30;100.00
56721;BME280;53183;47.412;18.884;2023-02-17T00:20:47;100137.03;;;3.31;100.00
56721;BME280;53183;47.412;18.884;2023-02-17T00:23:14;100134.41;;;3.33;100.00
56721;BME280;53183;47.412;18.884;2023-02-17T00:25:42;100137.88;;;3.33;100.00
56721;BME280;53183;47.412;18.884;2023-02-17T00:28:09;100134.50;;;3.25;100.00
56721;BME280;53183;47.412;18.884;2023-02-17T00:30:37;100135.19;;;3.39;100.00
56721;BME280;53183;47.412;18.884;2023-02-17T00:33:05;100131.81;;;3.33;100.00
56721;BME280;53183;47.412;18.884;2023-02-17T00:35:32;100130.09;;;3.30;100.00
56721;BME280;53183;47.412;18.884;2023-02-17T00:37:59;100136.28;;;3.23;100.00
56721;BME280;53183;47.412;18.884;2023-02-17T00:40:27;100140.69;;;3.19;100.00
56721;BME280;53183;47.412;18.884;2023-02-17T00:42:54;100142.37;;;3.23;100.00
56721;BME280;53183;47.412;18.884;2023-02-17T00:45:24;100144.88;;;3.33;100.00
56721;BME280;53183;47.412;18.884;2023-02-17T00:47:51;100143.97;;;3.34;100.00
56721;BME280;53183;47.412;18.884;2023-02-17T00:50:18;100135.31;;;3.30;100.00
56721;BME280;53183;47.412;18.884;2023-02-17T00:52:45;100145.84;;;3.22;100.00
56721;BME280;53183;47.412;18.884;2023-02-17T00:55:12;100152.94;;;3.14;100.00
56721;BME280;53183;47.412;18.884;2023-02-17T00:57:39;100141.53;;;3.21;100.00
56721;BME280;53183;47.412;18.884;2023-02-17T01:00:08;100146.81;;;3.17;100.00
56721;BME280;53183;47.412;18.884;2023-02-17T01:02:35;100142.37;;;3.23;100.00
56721;BME280;53183;47.412;18.884;2023-02-17T01:05:02;100135.19;;;3.38;100.00
56721;BME280;53183;47.412;18.884;2023-02-17T01:07:30;100139.56;;;3.37;100.00
56721;BME280;53183;47.412;18.884;2023-02-17T01:09:57;100133.47;;;3.37;100.00
56721;BME280;53183;47.412;18.884;2023-02-17T01:12:24;100117.88;;;3.31;100.00
56721;BME280;53183;47.412;18.884;2023-02-17T01:14:52;100115.16;;;3.38;100.00
56721;BME280;53183;47.412;18.884;2023-02-17T01:17:19;100110.78;;;3.39;100.00
56721;BME280;53183;47.412;18.884;2023-02-17T01:19:46;100110.88;;;3.36;100.00
56721;BME280;53183;47.412;18.884;2023-02-17T01:22:15;100115.97;;;3.42;100.00
56721;BME280;53183;47.412;18.884;2023-02-17T01:24:42;100108.19;;;3.40;99.86
56721;BME280;53183;47.412;18.884;2023-02-17T01:27:09;100111.63;;;3.42;99.34
56721;BME280;53183;47.412;18.884;2023-02-17T01:29:36;100105.63;;;3.36;99.71
56721;BME280;53183;47.412;18.884;2023-02-17T01:32:04;100104.75;;;3.35;99.71
56721;BME280;53183;47.412;18.884;2023-02-17T01:34:31;100104.66;;;3.41;99.37
56721;BME280;53183;47.412;18.884;2023-02-17T01:36:58;100100.38;;;3.37;99.66
56721;BME280;53183;47.412;18.884;2023-02-17T01:39:25;100099.41;;;3.44;99.53
56721;BME280;53183;47.412;18.884;2023-02-17T01:41:53;100103.72;;;3.45;99.18
56721;BME280;53183;47.412;18.884;2023-02-17T01:44:22;100097.63;;;3.46;99.05
56721;BME280;53183;47.412;18.884;2023-02-17T01:46:51;100100.12;;;3.54;98.51
56721;BME280;53183;47.412;18.884;2023-02-17T01:49:36;100094.91;;;3.54;97.90
56721;BME280;53183;47.412;18.884;2023-02-17T01:52:09;100101.22;;;3.39;97.91
56721;BME280;53183;47.412;18.884;2023-02-17T01:54:48;100105.56;;;3.39;97.57
56721;BME280;53183;47.412;18.884;2023-02-17T01:57:18;100092.50;;;3.39;96.69
56721;BME280;53183;47.412;18.884;2023-02-17T01:59:48;100085.72;;;3.25;96.93
56721;BME280;53183;47.412;18.884;2023-02-17T02:02:15;100083.06;;;3.28;96.75
56721;BME280;53183;47.412;18.884;2023-02-17T02:04:46;100077.69;;;3.41;96.13
56721;BME280;53183;47.412;18.884;2023-02-17T02:07:19;100075.03;;;3.44;95.85
56721;BME280;53183;47.412;18.884;2023-02-17T02:09:51;100073.28;;;3.44;95.47
56721;BME280;53183;47.412;18.884;2023-02-17T02:12:31;100074.22;;;3.40;95.36
56721;BME280;53183;47.412;18.884;2023-02-17T02:15:08;100076.81;;;3.40;94.82
56721;BME280;53183;47.412;18.884;2023-02-17T02:35:06;100076.81;;;2.78;96.76
56721;BME280;53183;47.412;18.884;2023-02-17T02:37:46;100070.87;;;2.66;96.92
56721;BME280;53183;47.412;18.884;2023-02-17T02:40:19;100070.19;;;2.50;97.31
56721;BME280;53183;47.412;18.884;2023-02-17T02:42:48;100075.50;;;2.42;97.83
56721;BME280;53183;47.412;18.884;2023-02-17T02:45:16;100075.59;;;2.33;97.91
56721;BME280;53183;47.412;18.884;2023-02-17T02:50:19;100071.25;;;2.33;97.52
56721;BME280;53183;47.412;18.884;2023-02-17T02:56:39;100068.00;;;2.15;98.43
56721;BME280;53183;47.412;18.884;2023-02-17T03:04:36;100063.97;;;1.81;99.59
56721;BME280;53183;47.412;18.884;2023-02-17T03:07:27;100062.31;;;1.71;99.77
56721;BME280;53183;47.412;18.884;2023-02-17T03:09:58;100069.28;;;1.64;100.00
56721;BME280;53183;47.412;18.884;2023-02-17T03:12:27;100074.56;;;1.57;100.00
56721;BME280;53183;47.412;18.884;2023-02-17T03:15:02;100072.91;;;1.50;100.00
56721;BME280;53183;47.412;18.884;2023-02-17T03:17:31;100073.81;;;1.44;100.00
56721;BME280;53183;47.412;18.884;2023-02-17T03:20:00;100078.22;;;1.36;100.00
56721;BME280;53183;47.412;18.884;2023-02-17T03:22:34;100092.13;;;1.30;100.00
56721;BME280;53183;47.412;18.884;2023-02-17T03:25:02;100094.78;;;1.26;100.00
56721;BME280;53183;47.412;18.884;2023-02-17T03:27:29;100086.91;;;1.33;100.00
56721;BME280;53183;47.412;18.884;2023-02-17T03:29:57;100091.19;;;1.45;100.00
56721;BME280;53183;47.412;18.884;2023-02-17T03:32:24;100092.00;;;1.47;100.00
56721;BME280;53183;47.412;18.884;2023-02-17T03:34:51;100091.09;;;1.54;100.00
56721;BME280;53183;47.412;18.884;2023-02-17T03:37:19;100087.63;;;1.51;100.00
56721;BME280;53183;47.412;18.884;2023-02-17T03:39:46;100094.56;;;1.53;100.00
56721;BME280;53183;47.412;18.884;2023-02-17T03:42:13;100096.31;;;1.51;100.00
56721;BME280;53183;47.412;18.884;2023-02-17T03:44:40;100085.91;;;1.50;100.00
56721;BME280;53183;47.412;18.884;2023-02-17T03:47:08;100092.81;;;1.54;100.00
56721;BME280;53183;47.412;18.884;2023-02-17T03:49:35;100096.28;;;1.54;100.00
56721;BME280;53183;47.412;18.884;2023-02-17T03:52:02;100093.69;;;1.59;100.00
56721;BME280;53183;47.412;18.884;2023-02-17T03:54:30;100084.19;;;1.47;100.00
56721;BME280;53183;47.412;18.884;2023-02-17T03:56:57;100090.34;;;1.42;100.00
56721;BME280;53183;47.412;18.884;2023-02-17T03:59:26;100092.94;;;1.40;100.00
56721;BME280;53183;47.412;18.884;2023-02-17T04:01:53;100092.91;;;1.43;100.00
56721;BME280;53183;47.412;18.884;2023-02-17T04:04:20;100089.47;;;1.38;100.00
56721;BME280;53183;47.412;18.884;2023-02-17T04:06:48;100077.22;;;1.51;100.00
56721;BME280;53183;47.412;18.884;2023-02-17T04:09:15;100073.75;;;1.50;100.00
56721;BME280;53183;47.412;18.884;2023-02-17T04:11:42;100079.88;;;1.46;100.00
56721;BME280;53183;47.412;18.884;2023-02-17T04:14:09;100092.91;;;1.46;100.00
56721;BME280;53183;47.412;18.884;2023-02-17T04:16:37;100093.66;;;1.57;100.00
56721;BME280;53183;47.412;18.884;2023-02-17T04:19:05;100091.09;;;1.54;100.00
56721;BME280;53183;47.412;18.884;2023-02-17T04:21:33;100087.66;;;1.52;100.00
56721;BME280;53183;47.412;18.884;2023-02-17T04:24:01;100085.91;;;1.51;100.00
56721;BME280;53183;47.412;18.884;2023-02-17T04:26:29;100083.31;;;1.50;100.00
56721;BME280;53183;47.412;18.884;2023-02-17T04:28:56;100079.00;;;1.44;100.00
56721;BME280;53183;47.412;18.884;2023-02-17T04:31:23;100079.97;;;1.35;100.00
56721;BME280;53183;47.412;18.884;2023-02-17T04:33:52;100071.25;;;1.35;100.00
56721;BME280;53183;47.412;18.884;2023-02-17T04:36:19;100075.63;;;1.33;100.00
56721;BME280;53183;47.412;18.884;2023-02-17T04:38:46;100071.28;;;1.33;100.00
56721;BME280;53183;47.412;18.884;2023-02-17T04:41:14;100079.06;;;1.35;100.00
56721;BME280;53183;47.412;18.884;2023-02-17T04:43:41;100079.97;;;1.32;100.00
56721;BME280;53183;47.412;18.884;2023-02-17T04:46:08;100082.53;;;1.37;100.00
56721;BME280;53183;47.412;18.884;2023-02-17T04:48:38;100078.09;;;1.53;100.00
56721;BME280;53183;47.412;18.884;2023-02-17T04:51:05;100071.81;;;1.77;100.00
56721;BME280;53183;47.412;18.884;2023-02-17T04:53:32;100070.97;;;1.75;100.00
56721;BME280;53183;47.412;18.884;2023-02-17T04:55:59;100074.31;;;1.87;100.00
56721;BME280;53183;47.412;18.884;2023-02-17T04:58:27;100066.38;;;2.00;100.00
56721;BME280;53183;47.412;18.884;2023-02-17T05:00:57;100063.69;;;2.09;100.00
56721;BME280;53183;47.412;18.884;2023-02-17T05:03:27;100073.12;;;2.22;100.00
56721;BME280;53183;47.412;18.884;2023-02-17T05:05:54;100077.34;;;2.34;100.00
56721;BME280;53183;47.412;18.884;2023-02-17T05:08:21;100083.31;;;2.42;99.70
56721;BME280;53183;47.412;18.884;2023-02-17T05:10:52;100080.66;;;2.48;99.11
56721;BME280;53183;47.412;18.884;2023-02-17T05:13:19;100082.38;;;2.49;98.71
56721;BME280;53183;47.412;18.884;2023-02-17T05:15:46;100093.59;;;2.57;98.26
56721;BME280;53183;47.412;18.884;2023-02-17T05:18:13;100098.72;;;2.67;97.53
56721;BME280;53183;47.412;18.884;2023-02-17T05:20:41;100096.03;;;2.70;97.43
56721;BME280;53183;47.412;18.884;2023-02-17T05:23:08;100089.94;;;2.74;97.30
56721;BME280;53183;47.412;18.884;2023-02-17T05:25:35;100088.91;;;2.84;97.00
56721;BME280;53183;47.412;18.884;2023-02-17T05:28:02;100084.50;;;2.89;96.28
56721;BME280;53183;47.412;18.884;2023-02-17T05:30:30;100082.66;;;2.96;96.22
56721;BME280;53183;47.412;18.884;2023-02-17T05:32:57;100080.94;;;2.96;95.77
56721;BME280;53183;47.412;18.884;2023-02-17T05:35:24;100074.81;;;2.97;95.37
56721;BME280;53183;47.412;18.884;2023-02-17T05:37:51;100077.41;;;3.00;95.23
56721;BME280;53183;47.412;18.884;2023-02-17T05:40:19;100079.00;;;3.11;94.92
56721;BME280;53183;47.412;18.884;2023-02-17T05:42:46;100075.41;;;3.18;94.32
56721;BME280;53183;47.412;18.884;2023-02-17T05:45:13;100080.59;;;3.21;94.19
56721;BME280;53183;47.412;18.884;2023-02-17T05:47:40;100086.72;;;3.18;94.25
56721;BME280;53183;47.412;18.884;2023-02-17T05:50:08;100090.25;;;3.14;94.48
56721;BME280;53183;47.412;18.884;2023-02-17T05:52:35;100088.47;;;3.19;94.93
56721;BME280;53183;47.412;18.884;2023-02-17T05:55:03;100089.31;;;3.20;95.00
56721;BME280;53183;47.412;18.884;2023-02-17T05:57:31;100091.16;;;3.13;95.15
56721;BME280;53183;47.412;18.884;2023-02-17T05:59:58;100081.53;;;3.15;95.56
56721;BME280;53183;47.412;18.884;2023-02-17T06:02:25;100085.81;;;3.21;95.40
56721;BME280;53183;47.412;18.884;2023-02-17T06:04:53;100084.91;;;3.22;95.13
56721;BME280;53183;47.412;18.884;2023-02-17T06:07:20;100088.34;;;3.27;95.20
56721;BME280;53183;47.412;18.884;2023-02-17T06:09:47;100093.47;;;3.32;94.55
56721;BME280;53183;47.412;18.884;2023-02-17T06:12:15;100081.09;;;3.44;93.48
56721;BME280;53183;47.412;18.884;2023-02-17T06:14:42;100086.31;;;3.46;93.15
56721;BME280;53183;47.412;18.884;2023-02-17T06:17:09;100091.56;;;3.46;93.14
56721;BME280;53183;47.412;18.884;2023-02-17T06:19:37;100097.50;;;3.56;92.76
56721;BME280;53183;47.412;18.884;2023-02-17T06:22:04;100094.84;;;3.59;92.36
56721;BME280;53183;47.412;18.884;2023-02-17T06:24:31;100091.28;;;3.61;92.28
56721;BME280;53183;47.412;18.884;2023-02-17T06:27:00;100100.72;;;3.71;91.79
56721;BME280;53183;47.412;18.884;2023-02-17T06:29:27;100091.81;;;3.83;91.41
56721;BME280;53183;47.412;18.884;2023-02-17T06:31:55;100099.62;;;3.86;91.21
56721;BME280;53183;47.412;18.884;2023-02-17T06:34:22;100108.97;;;3.98;90.74
56721;BME280;53183;47.412;18.884;2023-02-17T06:36:49;100099.16;;;4.12;90.20
56721;BME280;53183;47.412;18.884;2023-02-17T06:39:16;100106.13;;;4.13;90.30
56721;BME280;53183;47.412;18.884;2023-02-17T06:41:44;100107.88;;;4.13;90.36
56721;BME280;53183;47.412;18.884;2023-02-17T06:44:11;100108.66;;;4.18;90.18
56721;BME280;53183;47.412;18.884;2023-02-17T06:46:38;100105.88;;;4.27;89.44
56721;BME280;53183;47.412;18.884;2023-02-17T06:49:06;100112.63;;;4.39;87.79
56721;BME280;53183;47.412;18.884;2023-02-17T06:51:33;100108.16;;;4.45;87.43
56721;BME280;53183;47.412;18.884;2023-02-17T06:54:00;100113.22;;;4.53;87.35
56721;BME280;53183;47.412;18.884;2023-02-17T06:56:28;100109.59;;;4.62;87.10
56721;BME280;53183;47.412;18.884;2023-02-17T06:58:55;100105.09;;;4.68;86.85
56721;BME280;53183;47.412;18.884;2023-02-17T07:01:24;100106.62;;;4.79;86.56
56721;BME280;53183;47.412;18.884;2023-02-17T07:03:53;100101.87;;;4.98;85.46
56721;BME280;53183;47.412;18.884;2023-02-17T07:06:21;100111.31;;;5.05;85.54
56721;BME280;53183;47.412;18.884;2023-02-17T07:08:49;100109.44;;;5.11;85.48
56721;BME280;53183;47.412;18.884;2023-02-17T07:11:17;100105.75;;;5.20;85.00
56721;BME280;53183;47.412;18.884;2023-02-17T07:13:44;100108.22;;;5.26;83.04
56721;BME280;53183;47.412;18.884;2023-02-17T07:16:13;100097.78;;;5.25;82.98
56721;BME280;53183;47.412;18.884;2023-02-17T07:18:41;100098.56;;;5.28;82.55
56721;BME280;53183;47.412;18.884;2023-02-17T07:21:08;100104.59;;;5.33;82.19
56721;BME280;53183;47.412;18.884;2023-02-17T07:23:36;100108.88;;;5.37;82.12
56721;BME280;53183;47.412;18.884;2023-02-17T07:26:07;100105.25;;;5.43;82.22
56721;BME280;53183;47.412;18.884;2023-02-17T07:28:36;100098.78;;;5.58;82.01
56721;BME280;53183;47.412;18.884;2023-02-17T07:31:14;100092.34;;;5.71;80.52
56721;BME280;53183;47.412;18.884;2023-02-17T07:33:43;100089.22;;;5.91;79.46
56721;BME280;53183;47.412;18.884;2023-02-17T07:36:14;100081.94;;;6.04;79.36
56721;BME280;53183;47.412;18.884;2023-02-17T07:38:41;100090.72;;;6.36;76.72
56721;BME280;53183;47.412;18.884;2023-02-17T07:41:15;100098.84;;;6.59;77.05
56721;BME280;53183;47.412;18.884;2023-02-17T07:43:44;100100.81;;;6.82;75.71
56721;BME280;53183;47.412;18.884;2023-02-17T07:46:16;100098.88;;;6.89;76.19
56721;BME280;53183;47.412;18.884;2023-02-17T07:48:44;100092.25;;;7.05;75.73
56721;BME280;53183;47.412;18.884;2023-02-17T07:51:19;100087.44;;;7.19;74.74
56721;BME280;53183;47.412;18.884;2023-02-17T07:53:48;100087.19;;;7.27;75.19
56721;BME280;53183;47.412;18.884;2023-02-17T07:56:18;100085.59;;;7.51;74.96
56721;BME280;53183;47.412;18.884;2023-02-17T07:58:47;100078.84;;;7.70;73.45
56721;BME280;53183;47.412;18.884;2023-02-17T08:01:17;100082.72;;;7.85;72.64
56721;BME280;53183;47.412;18.884;2023-02-17T08:03:46;100087.53;;;7.99;72.56
56721;BME280;53183;47.412;18.884;2023-02-17T08:06:19;100084.44;;;8.13;71.81
56721;BME280;53183;47.412;18.884;2023-02-17T08:08:48;100095.28;;;8.29;70.51
56721;BME280;53183;47.412;18.884;2023-02-17T08:11:34;100090.38;;;8.44;70.35
56721;BME280;53183;47.412;18.884;2023-02-17T08:14:23;100090.59;;;8.63;66.28
56721;BME280;53183;47.412;18.884;2023-02-17T08:16:50;100091.03;;;8.51;65.05
56721;BME280;53183;47.412;18.884;2023-02-17T08:19:18;100097.41;;;8.69;63.66
56721;BME280;53183;47.412;18.884;2023-02-17T08:21:45;100093.19;;;8.88;62.42
56721;BME280;53183;47.412;18.884;2023-02-17T08:24:13;100081.53;;;8.94;60.59
56721;BME280;53183;47.412;18.884;2023-02-17T08:26:42;100091.06;;;9.22;60.29
56721;BME280;53183;47.412;18.884;2023-02-17T08:29:10;100085.03;;;9.18;60.04
56721;BME280;53183;47.412;18.884;2023-02-17T08:31:37;100087.03;;;9.35;59.27
56721;BME280;53183;47.412;18.884;2023-02-17T08:34:07;100084.69;;;9.49;58.52
56721;BME280;53183;47.412;18.884;2023-02-17T08:36:35;100086.62;;;9.44;59.02
56721;BME280;53183;47.412;18.884;2023-02-17T08:39:10;100085.34;;;9.76;60.76
56721;BME280;53183;47.412;18.884;2023-02-17T08:41:38;100088.09;;;9.95;58.06
56721;BME280;53183;47.412;18.884;2023-02-17T08:44:09;100091.09;;;9.86;59.61
56721;BME280;53183;47.412;18.884;2023-02-17T08:46:37;100091.09;;;9.86;58.36
56721;BME280;53183;47.412;18.884;2023-02-17T08:49:05;100097.84;;;9.93;59.02
56721;BME280;53183;47.412;18.884;2023-02-17T08:51:33;100100.56;;;9.92;57.64
56721;BME280;53183;47.412;18.884;2023-02-17T08:54:03;100107.50;;;9.72;58.25
56721;BME280;53183;47.412;18.884;2023-02-17T08:56:31;100099.81;;;9.44;58.88
56721;BME280;53183;47.412;18.884;2023-02-17T08:58:58;100087.87;;;9.57;59.61
56721;BME280;53183;47.412;18.884;2023-02-17T09:01:26;100087.25;;;9.73;59.35
56721;BME280;53183;47.412;18.884;2023-02-17T09:03:55;100091.87;;;9.68;59.07
56721;BME280;53183;47.412;18.884;2023-02-17T09:06:23;100095.84;;;9.78;58.59
56721;BME280;53183;47.412;18.884;2023-02-17T09:08:50;100098.28;;;9.60;59.78
56721;BME280;53183;47.412;18.884;2023-02-17T09:11:18;100093.09;;;9.59;60.51
56721;BME280;53183;47.412;18.884;2023-02-17T09:13:46;100104.56;;;9.80;60.92
56721;BME280;53183;47.412;18.884;2023-02-17T09:16:13;100095.66;;;9.82;60.83
56721;BME280;53183;47.412;18.884;2023-02-17T09:18:41;100096.34;;;9.88;61.04
56721;BME280;53183;47.412;18.884;2023-02-17T09:21:10;100096.03;;;9.73;60.73
56721;BME280;53183;47.412;18.884;2023-02-17T09:23:39;100095.91;;;9.76;61.43
56721;BME280;53183;47.412;18.884;2023-02-17T09:26:08;100088.91;;;9.97;61.67
56721;BME280;53183;47.412;18.884;2023-02-17T09:28:37;100085.81;;;10.08;60.95
56721;BME280;53183;47.412;18.884;2023-02-17T09:31:24;100086.44;;;10.35;60.81
56721;BME280;53183;47.412;18.884;2023-02-17T09:33:53;100086.28;;;10.59;60.47
56721;BME280;53183;47.412;18.884;2023-02-17T09:36:24;100088.41;;;10.50;61.03
56721;BME280;53183;47.412;18.884;2023-02-17T09:38:52;100094.19;;;10.18;60.55
56721;BME280;53183;47.412;18.884;2023-02-17T09:44:05;100089.47;;;10.26;61.38
56721;BME280;53183;47.412;18.884;2023-02-17T09:46:41;100094.41;;;9.71;63.40
56721;BME280;53183;47.412;18.884;2023-02-17T09:49:34;100096.44;;;9.19;65.14
56721;BME280;53183;47.412;18.884;2023-02-17T09:52:08;100087.28;;;8.82;66.86
56721;BME280;53183;47.412;18.884;2023-02-17T09:57:38;100070.56;;;8.83;67.08
56721;BME280;53183;47.412;18.884;2023-02-17T10:00:10;100074.56;;;8.93;68.07
56721;BME280;53183;47.412;18.884;2023-02-17T10:02:45;100084.47;;;9.10;67.88
56721;BME280;53183;47.412;18.884;2023-02-17T10:05:17;100082.56;;;9.13;66.48
56721;BME280;53183;47.412;18.884;2023-02-17T10:07:58;100072.59;;;8.98;66.82
56721;BME280;53183;47.412;18.884;2023-02-17T10:10:38;100067.31;;;9.22;66.67
56721;BME280;53183;47.412;18.884;2023-02-17T10:13:08;100067.63;;;9.36;65.59
56721;BME280;53183;47.412;18.884;2023-02-17T10:15:42;100066.94;;;9.53;65.97
56721;BME280;53183;47.412;18.884;2023-02-17T10:18:30;100063.38;;;9.54;64.66
56721;BME280;53183;47.412;18.884;2023-02-17T10:21:04;100050.78;;;9.60;65.98
56721;BME280;53183;47.412;18.884;2023-02-17T10:23:33;100052.50;;;9.83;64.89
56721;BME280;53183;47.412;18.884;2023-02-17T10:28:52;100044.28;;;9.91;64.01
56721;BME280;53183;47.412;18.884;2023-02-17T10:36:56;100042.47;;;9.92;66.06
56721;BME280;53183;47.412;18.884;2023-02-17T10:42:15;100034.72;;;10.50;62.96
56721;BME280;53183;47.412;18.884;2023-02-17T10:44:47;100031.81;;;10.36;63.44
56721;BME280;53183;47.412;18.884;2023-02-17T10:47:17;100022.53;;;10.46;62.73
56721;BME280;53183;47.412;18.884;2023-02-17T10:49:48;100027.28;;;10.58;62.75
56721;BME280;53183;47.412;18.884;2023-02-17T10:52:23;100016.66;;;10.78;61.42
56721;BME280;53183;47.412;18.884;2023-02-17T10:54:56;100010.56;;;10.57;61.88
56721;BME280;53183;47.412;18.884;2023-02-17T10:57:36;100011.84;;;10.49;62.50
56721;BME280;53183;47.412;18.884;2023-02-17T11:00:05;100007.22;;;10.73;62.44
56721;BME280;53183;47.412;18.884;2023-02-17T11:02:35;100003.00;;;10.69;62.46
56721;BME280;53183;47.412;18.884;2023-02-17T11:05:06;100007.16;;;10.74;62.95
56721;BME280;53183;47.412;18.884;2023-02-17T11:07:38;100010.37;;;10.81;62.00
56721;BME280;53183;47.412;18.884;2023-02-17T11:10:39;100013.00;;;10.81;61.98
56721;BME280;53183;47.412;18.884;2023-02-17T11:15:56;100004.72;;;10.70;62.76
56721;BME280;53183;47.412;18.884;2023-02-17T11:18:27;99998.38;;;10.74;63.64
56721;BME280;53183;47.412;18.884;2023-02-17T11:21:08;99989.31;;;10.79;63.29
56721;BME280;53183;47.412;18.884;2023-02-17T11:23:57;99989.34;;;10.78;61.97
56721;BME280;53183;47.412;18.884;2023-02-17T11:26:28;99992.66;;;10.83;62.15
56721;BME280;53183;47.412;18.884;2023-02-17T11:29:15;99992.56;;;10.66;61.78
56721;BME280;53183;47.412;18.884;2023-02-17T11:32:03;99983.78;;;10.46;62.40
56721;BME280;53183;47.412;18.884;2023-02-17T11:34:35;99979.09;;;10.32;65.28
56721;BME280;53183;47.412;18.884;2023-02-17T11:42:19;99976.47;;;10.32;64.85
56721;BME280;53183;47.412;18.884;2023-02-17T11:44:47;99963.63;;;10.44;65.89
56721;BME280;53183;47.412;18.884;2023-02-17T11:47:41;99966.72;;;10.53;66.58
56721;BME280;53183;47.412;18.884;2023-02-17T11:53:46;99962.28;;;10.54;68.07
56721;BME280;53183;47.412;18.884;2023-02-17T11:56:18;99964.56;;;10.62;67.85
56721;BME280;53183;47.412;18.884;2023-02-17T11:59:02;99961.88;;;10.63;69.03
56721;BME280;53183;47.412;18.884;2023-02-17T12:07:03;99945.50;;;10.74;68.81
56721;BME280;53183;47.412;18.884;2023-02-17T12:26:19;99911.41;;;10.87;70.55
56721;BME280;53183;47.412;18.884;2023-02-17T12:31:59;99900.47;;;11.12;71.46
56721;BME280;53183;47.412;18.884;2023-02-17T12:34:52;99900.47;;;11.12;71.92
56721;BME280;53183;47.412;18.884;2023-02-17T12:37:24;99898.47;;;10.80;73.32
56721;BME280;53183;47.412;18.884;2023-02-17T12:39:53;99893.50;;;10.92;73.38
56721;BME280;53183;47.412;18.884;2023-02-17T12:42:34;99900.72;;;10.88;73.42
56721;BME280;53183;47.412;18.884;2023-02-17T12:45:06;99901.53;;;10.90;72.85
56721;BME280;53183;47.412;18.884;2023-02-17T12:47:43;99908.78;;;11.04;71.25
56721;BME280;53183;47.412;18.884;2023-02-17T12:50:23;99905.44;;;11.00;71.10
56721;BME280;53183;47.412;18.884;2023-02-17T12:52:57;99903.00;;;11.32;69.15
56721;BME280;53183;47.412;18.884;2023-02-17T12:55:31;99909.37;;;11.45;68.46
56721;BME280;53183;47.412;18.884;2023-02-17T12:58:06;99908.34;;;11.48;67.89
56721;BME280;53183;47.412;18.884;2023-02-17T13:01:23;99905.78;;;11.46;69.07
56721;BME280;53183;47.412;18.884;2023-02-17T13:03:31;99900.94;;;11.55;68.48
56721;BME280;53183;47.412;18.884;2023-02-17T13:06:14;99894.09;;;11.50;68.57
56721;BME280;53183;47.412;18.884;2023-02-17T13:08:53;99905.16;;;11.41;69.26
56721;BME280;53183;47.412;18.884;2023-02-17T13:11:33;99900.81;;;11.40;69.71
56721;BME280;53183;47.412;18.884;2023-02-17T13:14:46;99895.06;;;11.32;71.19
56721;BME280;53183;47.412;18.884;2023-02-17T13:17:05;99896.41;;;11.04;71.11
56721;BME280;53183;47.412;18.884;2023-02-17T13:19:33;99891.91;;;10.89;72.84
56721;BME280;53183;47.412;18.884;2023-02-17T13:22:01;99897.81;;;10.75;75.03
56721;BME280;53183;47.412;18.884;2023-02-17T13:24:38;99905.75;;;10.75;75.89
56721;BME280;53183;47.412;18.884;2023-02-17T13:27:21;99890.78;;;10.76;77.69
56721;BME280;53183;47.412;18.884;2023-02-17T13:32:44;99891.12;;;11.04;78.92
56721;BME280;53183;47.412;18.884;2023-02-17T13:35:30;99881.47;;;11.03;80.77
56721;BME280;53183;47.412;18.884;2023-02-17T13:37:58;99870.38;;;11.14;80.60
56721;BME280;53183;47.412;18.884;2023-02-17T13:42:56;99862.13;;;11.20;78.07
56721;BME280;53183;47.412;18.884;2023-02-17T13:45:28;99864.47;;;11.26;78.90
56721;BME280;53183;47.412;18.884;2023-02-17T13:48:10;99862.75;;;11.25;79.46
56721;BME280;53183;47.412;18.884;2023-02-17T13:51:05;99862.28;;;11.35;79.68
56721;BME280;53183;47.412;18.884;2023-02-17T13:53:35;99857.88;;;11.35;80.49
56721;BME280;53183;47.412;18.884;2023-02-17T13:56:07;99856.50;;;11.44;80.06
56721;BME280;53183;47.412;18.884;2023-02-17T13:58:38;99860.34;;;11.56;79.97
56721;BME280;53183;47.412;18.884;2023-02-17T14:01:11;99856.09;;;11.51;80.40
56721;BME280;53183;47.412;18.884;2023-02-17T14:03:45;99862.34;;;11.50;79.75
56721;BME280;53183;47.412;18.884;2023-02-17T14:06:39;99856.28;;;11.48;80.30
56721;BME280;53183;47.412;18.884;2023-02-17T14:11:49;99855.66;;;11.43;80.06
56721;BME280;53183;47.412;18.884;2023-02-17T14:14:18;99850.63;;;11.39;79.81
56721;BME280;53183;47.412;18.884;2023-02-17T14:16:59;99852.00;;;11.28;80.11
56721;BME280;53183;47.412;18.884;2023-02-17T14:19:28;99838.44;;;11.35;78.96
56721;BME280;53183;47.412;18.884;2023-02-17T14:22:02;99843.44;;;11.23;77.29
56721;BME280;53183;47.412;18.884;2023-02-17T14:24:35;99847.09;;;11.21;76.58
56721;BME280;53183;47.412;18.884;2023-02-17T14:27:07;99843.75;;;11.17;76.22
56721;BME280;53183;47.412;18.884;2023-02-17T14:29:47;99848.66;;;11.08;75.96
56721;BME280;53183;47.412;18.884;2023-02-17T14:32:33;99837.97;;;10.92;77.64
56721;BME280;53183;47.412;18.884;2023-02-17T14:35:22;99840.66;;;11.09;76.19
56721;BME280;53183;47.412;18.884;2023-02-17T14:37:49;99844.59;;;11.00;75.85